sensor_id;sensor_type;location;lat;lon;timestamp;P1;durP1;ratioP1;P2;durP2;ratioP2
71610;SDS011;59459;51.172;6.682;2023-05-13T00:02:14;14.53;;;7.67;;
71610;SDS011;59459;51.172;6.682;2023-05-13T00:04:39;13.70;;;8.27;;
71610;SDS011;59459;51.172;6.682;2023-05-13T00:07:04;16.33;;;8.40;;
71610;SDS011;59459;51.172;6.682;2023-05-13T00:09:30;14.00;;;8.50;;
71610;SDS011;59459;51.172;6.682;2023-05-13T00:11:55;17.30;;;9.63;;
71610;SDS011;59459;51.172;6.682;2023-05-13T00:14:20;18.13;;;9.83;;
71610;SDS011;59459;51.172;6.682;2023-05-13T00:16:45;17.40;;;9.27;;
71610;SDS011;59459;51.172;6.682;2023-05-13T00:19:11;16.57;;;9.37;;
71610;SDS011;59459;51.172;6.682;2023-05-13T00:21:36;16.13;;;8.93;;
71610;SDS011;59459;51.172;6.682;2023-05-13T00:24:01;19.20;;;10.27;;
71610;SDS011;59459;51.172;6.682;2023-05-13T00:26:26;18.97;;;10.17;;
71610;SDS011;59459;51.172;6.682;2023-05-13T00:28:52;17.33;;;10.23;;
71610;SDS011;59459;51.172;6.682;2023-05-13T00:31:17;16.43;;;9.13;;
71610;SDS011;59459;51.172;6.682;2023-05-13T00:33:42;19.97;;;10.87;;
71610;SDS011;59459;51.172;6.682;2023-05-13T00:36:07;17.33;;;9.90;;
71610;SDS011;59459;51.172;6.682;2023-05-13T00:38:34;19.42;;;10.40;;
71610;SDS011;59459;51.172;6.682;2023-05-13T00:40:59;18.47;;;11.23;;
71610;SDS011;59459;51.172;6.682;2023-05-13T00:43:24;18.53;;;9.97;;
71610;SDS011;59459;51.172;6.682;2023-05-13T00:45:50;19.37;;;11.40;;
71610;SDS011;59459;51.172;6.682;2023-05-13T00:48:15;17.50;;;10.03;;
71610;SDS011;59459;51.172;6.682;2023-05-13T00:50:40;27.27;;;10.37;;
71610;SDS011;59459;51.172;6.682;2023-05-13T00:53:08;18.65;;;10.15;;
71610;SDS011;59459;51.172;6.682;2023-05-13T00:55:33;20.00;;;11.10;;
71610;SDS011;59459;51.172;6.682;2023-05-13T00:57:59;19.87;;;10.27;;
71610;SDS011;59459;51.172;6.682;2023-05-13T01:00:24;21.80;;;10.17;;
71610;SDS011;59459;51.172;6.682;2023-05-13T01:10:30;19.52;;;10.63;;
71610;SDS011;59459;51.172;6.682;2023-05-13T01:12:57;19.63;;;10.55;;
71610;SDS011;59459;51.172;6.682;2023-05-13T01:15:24;17.65;;;11.15;;
71610;SDS011;59459;51.172;6.682;2023-05-13T01:20:21;18.00;;;11.07;;
71610;SDS011;59459;51.172;6.682;2023-05-13T01:22:47;17.90;;;10.85;;
71610;SDS011;59459;51.172;6.682;2023-05-13T01:25:12;21.10;;;11.37;;
71610;SDS011;59459;51.172;6.682;2023-05-13T01:27:37;19.60;;;10.90;;
71610;SDS011;59459;51.172;6.682;2023-05-13T01:30:03;20.73;;;11.13;;
71610;SDS011;59459;51.172;6.682;2023-05-13T01:32:28;19.98;;;10.90;;
71610;SDS011;59459;51.172;6.682;2023-05-13T01:34:54;19.13;;;10.97;;
71610;SDS011;59459;51.172;6.682;2023-05-13T01:37:20;19.08;;;11.50;;
71610;SDS011;59459;51.172;6.682;2023-05-13T01:39:45;20.87;;;11.70;;
71610;SDS011;59459;51.172;6.682;2023-05-13T01:42:11;17.97;;;11.10;;
71610;SDS011;59459;51.172;6.682;2023-05-13T01:44:36;18.63;;;11.33;;
71610;SDS011;59459;51.172;6.682;2023-05-13T01:47:01;18.43;;;9.93;;
71610;SDS011;59459;51.172;6.682;2023-05-13T01:49:27;18.83;;;9.77;;
71610;SDS011;59459;51.172;6.682;2023-05-13T01:51:52;24.53;;;11.60;;
71610;SDS011;59459;51.172;6.682;2023-05-13T01:54:17;19.27;;;9.97;;
71610;SDS011;59459;51.172;6.682;2023-05-13T01:56:42;20.07;;;10.97;;
71610;SDS011;59459;51.172;6.682;2023-05-13T01:59:08;19.90;;;11.27;;
71610;SDS011;59459;51.172;6.682;2023-05-13T02:01:33;17.67;;;9.53;;
71610;SDS011;59459;51.172;6.682;2023-05-13T02:03:58;17.63;;;10.27;;
71610;SDS011;59459;51.172;6.682;2023-05-13T02:06:24;17.88;;;10.57;;
71610;SDS011;59459;51.172;6.682;2023-05-13T02:08:50;18.47;;;10.30;;
71610;SDS011;59459;51.172;6.682;2023-05-13T02:11:15;20.27;;;10.53;;
71610;SDS011;59459;51.172;6.682;2023-05-13T02:13:40;19.23;;;11.33;;
71610;SDS011;59459;51.172;6.682;2023-05-13T02:16:06;15.88;;;9.73;;
71610;SDS011;59459;51.172;6.682;2023-05-13T02:18:31;19.33;;;11.03;;
71610;SDS011;59459;51.172;6.682;2023-05-13T02:20:56;19.53;;;12.00;;
71610;SDS011;59459;51.172;6.682;2023-05-13T02:23:21;17.33;;;10.83;;
71610;SDS011;59459;51.172;6.682;2023-05-13T02:25:46;18.73;;;11.50;;
71610;SDS011;59459;51.172;6.682;2023-05-13T02:28:12;21.10;;;11.33;;
71610;SDS011;59459;51.172;6.682;2023-05-13T02:30:37;20.77;;;11.73;;
71610;SDS011;59459;51.172;6.682;2023-05-13T02:33:02;22.00;;;11.47;;
71610;SDS011;59459;51.172;6.682;2023-05-13T02:35:27;20.30;;;11.23;;
71610;SDS011;59459;51.172;6.682;2023-05-13T02:37:56;21.53;;;11.23;;
71610;SDS011;59459;51.172;6.682;2023-05-13T02:40:21;19.27;;;11.20;;
71610;SDS011;59459;51.172;6.682;2023-05-13T02:42:46;18.73;;;12.50;;
71610;SDS011;59459;51.172;6.682;2023-05-13T02:45:12;18.97;;;11.27;;
71610;SDS011;59459;51.172;6.682;2023-05-13T02:47:37;20.73;;;11.67;;
71610;SDS011;59459;51.172;6.682;2023-05-13T02:50:04;22.02;;;11.50;;
71610;SDS011;59459;51.172;6.682;2023-05-13T02:52:34;18.85;;;11.55;;
71610;SDS011;59459;51.172;6.682;2023-05-13T02:55:00;20.60;;;11.23;;
71610;SDS011;59459;51.172;6.682;2023-05-13T02:57:25;20.73;;;11.60;;
71610;SDS011;59459;51.172;6.682;2023-05-13T02:59:50;20.43;;;11.47;;
71610;SDS011;59459;51.172;6.682;2023-05-13T03:02:16;21.40;;;12.17;;
71610;SDS011;59459;51.172;6.682;2023-05-13T03:04:41;20.90;;;12.90;;
71610;SDS011;59459;51.172;6.682;2023-05-13T03:07:06;22.17;;;12.23;;
71610;SDS011;59459;51.172;6.682;2023-05-13T03:09:31;20.87;;;12.43;;
71610;SDS011;59459;51.172;6.682;2023-05-13T03:11:59;21.25;;;12.20;;
71610;SDS011;59459;51.172;6.682;2023-05-13T03:14:24;20.37;;;11.57;;
71610;SDS011;59459;51.172;6.682;2023-05-13T03:16:49;21.77;;;11.87;;
71610;SDS011;59459;51.172;6.682;2023-05-13T03:19:14;20.07;;;11.33;;
71610;SDS011;59459;51.172;6.682;2023-05-13T03:21:39;19.67;;;10.90;;
71610;SDS011;59459;51.172;6.682;2023-05-13T03:24:05;18.67;;;11.10;;
71610;SDS011;59459;51.172;6.682;2023-05-13T03:26:30;20.57;;;12.10;;
71610;SDS011;59459;51.172;6.682;2023-05-13T03:28:55;18.80;;;11.33;;
71610;SDS011;59459;51.172;6.682;2023-05-13T03:31:21;19.50;;;11.23;;
71610;SDS011;59459;51.172;6.682;2023-05-13T03:33:46;21.53;;;12.10;;
71610;SDS011;59459;51.172;6.682;2023-05-13T03:36:12;17.20;;;11.07;;
71610;SDS011;59459;51.172;6.682;2023-05-13T03:38:37;20.93;;;11.27;;
71610;SDS011;59459;51.172;6.682;2023-05-13T03:41:02;18.77;;;11.47;;
71610;SDS011;59459;51.172;6.682;2023-05-13T03:43:27;20.73;;;12.17;;
71610;SDS011;59459;51.172;6.682;2023-05-13T03:45:52;20.47;;;11.30;;
71610;SDS011;59459;51.172;6.682;2023-05-13T03:48:18;24.35;;;11.90;;
71610;SDS011;59459;51.172;6.682;2023-05-13T03:50:43;21.53;;;12.33;;
71610;SDS011;59459;51.172;6.682;2023-05-13T03:53:09;20.00;;;12.03;;
71610;SDS011;59459;51.172;6.682;2023-05-13T03:55:35;20.80;;;12.15;;
71610;SDS011;59459;51.172;6.682;2023-05-13T03:58:09;20.83;;;11.53;;
71610;SDS011;59459;51.172;6.682;2023-05-13T04:00:34;22.00;;;11.48;;
71610;SDS011;59459;51.172;6.682;2023-05-13T04:02:59;20.83;;;12.13;;
71610;SDS011;59459;51.172;6.682;2023-05-13T04:05:25;20.77;;;11.47;;
71610;SDS011;59459;51.172;6.682;2023-05-13T04:07:50;20.47;;;11.70;;
71610;SDS011;59459;51.172;6.682;2023-05-13T04:10:15;21.87;;;11.97;;
71610;SDS011;59459;51.172;6.682;2023-05-13T04:12:40;21.60;;;12.37;;
71610;SDS011;59459;51.172;6.682;2023-05-13T04:15:06;21.07;;;11.57;;
71610;SDS011;59459;51.172;6.682;2023-05-13T04:17:31;20.30;;;11.10;;
71610;SDS011;59459;51.172;6.682;2023-05-13T04:19:56;24.27;;;12.13;;
71610;SDS011;59459;51.172;6.682;2023-05-13T04:22:24;22.15;;;12.57;;
71610;SDS011;59459;51.172;6.682;2023-05-13T04:24:49;21.50;;;11.50;;
71610;SDS011;59459;51.172;6.682;2023-05-13T04:27:20;22.95;;;12.25;;
71610;SDS011;59459;51.172;6.682;2023-05-13T04:29:45;18.03;;;11.37;;
71610;SDS011;59459;51.172;6.682;2023-05-13T04:32:10;21.77;;;12.03;;
71610;SDS011;59459;51.172;6.682;2023-05-13T04:34:35;20.87;;;12.73;;
71610;SDS011;59459;51.172;6.682;2023-05-13T04:37:00;21.50;;;12.13;;
71610;SDS011;59459;51.172;6.682;2023-05-13T04:39:26;21.13;;;10.87;;
71610;SDS011;59459;51.172;6.682;2023-05-13T04:41:51;21.50;;;12.30;;
71610;SDS011;59459;51.172;6.682;2023-05-13T04:44:16;21.87;;;11.93;;
71610;SDS011;59459;51.172;6.682;2023-05-13T04:46:41;21.77;;;11.40;;
71610;SDS011;59459;51.172;6.682;2023-05-13T04:49:08;20.23;;;11.73;;
71610;SDS011;59459;51.172;6.682;2023-05-13T04:51:34;18.57;;;10.63;;
71610;SDS011;59459;51.172;6.682;2023-05-13T04:53:59;21.13;;;12.57;;
71610;SDS011;59459;51.172;6.682;2023-05-13T04:56:24;23.77;;;11.17;;
71610;SDS011;59459;51.172;6.682;2023-05-13T04:58:50;19.70;;;11.37;;
71610;SDS011;59459;51.172;6.682;2023-05-13T05:01:15;19.23;;;11.60;;
71610;SDS011;59459;51.172;6.682;2023-05-13T05:03:40;20.87;;;11.47;;
71610;SDS011;59459;51.172;6.682;2023-05-13T05:06:05;21.03;;;11.57;;
71610;SDS011;59459;51.172;6.682;2023-05-13T05:08:30;19.63;;;11.83;;
71610;SDS011;59459;51.172;6.682;2023-05-13T05:10:56;21.53;;;11.50;;
71610;SDS011;59459;51.172;6.682;2023-05-13T05:13:21;19.03;;;10.90;;
71610;SDS011;59459;51.172;6.682;2023-05-13T05:15:46;18.40;;;11.57;;
71610;SDS011;59459;51.172;6.682;2023-05-13T05:18:11;20.97;;;11.77;;
71610;SDS011;59459;51.172;6.682;2023-05-13T05:20:37;20.27;;;11.32;;
71610;SDS011;59459;51.172;6.682;2023-05-13T05:23:03;20.03;;;11.73;;
71610;SDS011;59459;51.172;6.682;2023-05-13T05:25:28;18.55;;;10.70;;
71610;SDS011;59459;51.172;6.682;2023-05-13T05:27:53;19.57;;;11.07;;
71610;SDS011;59459;51.172;6.682;2023-05-13T05:30:19;19.40;;;10.80;;
71610;SDS011;59459;51.172;6.682;2023-05-13T05:32:44;18.80;;;10.70;;
71610;SDS011;59459;51.172;6.682;2023-05-13T05:35:10;19.10;;;10.93;;
71610;SDS011;59459;51.172;6.682;2023-05-13T05:37:35;19.17;;;10.98;;
71610;SDS011;59459;51.172;6.682;2023-05-13T05:40:00;19.53;;;11.10;;
71610;SDS011;59459;51.172;6.682;2023-05-13T05:42:26;19.13;;;10.30;;
71610;SDS011;59459;51.172;6.682;2023-05-13T05:44:51;18.80;;;10.93;;
71610;SDS011;59459;51.172;6.682;2023-05-13T05:47:16;20.37;;;11.60;;
71610;SDS011;59459;51.172;6.682;2023-05-13T05:49:41;18.53;;;11.53;;
71610;SDS011;59459;51.172;6.682;2023-05-13T05:52:07;19.40;;;10.37;;
71610;SDS011;59459;51.172;6.682;2023-05-13T05:54:34;19.15;;;11.15;;
71610;SDS011;59459;51.172;6.682;2023-05-13T05:57:00;18.37;;;11.60;;
71610;SDS011;59459;51.172;6.682;2023-05-13T05:59:25;19.97;;;11.10;;
71610;SDS011;59459;51.172;6.682;2023-05-13T06:01:50;17.00;;;10.83;;
71610;SDS011;59459;51.172;6.682;2023-05-13T06:04:15;20.10;;;10.87;;
71610;SDS011;59459;51.172;6.682;2023-05-13T06:06:41;18.73;;;10.90;;
71610;SDS011;59459;51.172;6.682;2023-05-13T06:09:06;21.73;;;11.60;;
71610;SDS011;59459;51.172;6.682;2023-05-13T06:11:31;20.50;;;11.77;;
71610;SDS011;59459;51.172;6.682;2023-05-13T06:13:57;17.80;;;11.13;;
71610;SDS011;59459;51.172;6.682;2023-05-13T06:16:22;21.08;;;11.50;;
71610;SDS011;59459;51.172;6.682;2023-05-13T06:18:48;18.47;;;10.43;;
71610;SDS011;59459;51.172;6.682;2023-05-13T06:21:15;18.53;;;10.77;;
71610;SDS011;59459;51.172;6.682;2023-05-13T06:23:41;20.02;;;11.05;;
71610;SDS011;59459;51.172;6.682;2023-05-13T06:26:06;18.57;;;10.93;;
71610;SDS011;59459;51.172;6.682;2023-05-13T06:28:31;20.47;;;11.57;;
71610;SDS011;59459;51.172;6.682;2023-05-13T06:30:56;18.03;;;10.07;;
71610;SDS011;59459;51.172;6.682;2023-05-13T06:33:24;16.48;;;10.65;;
71610;SDS011;59459;51.172;6.682;2023-05-13T06:35:52;19.83;;;11.10;;
71610;SDS011;59459;51.172;6.682;2023-05-13T06:38:18;20.60;;;11.27;;
71610;SDS011;59459;51.172;6.682;2023-05-13T06:40:43;21.57;;;11.40;;
71610;SDS011;59459;51.172;6.682;2023-05-13T06:43:09;19.63;;;10.52;;
71610;SDS011;59459;51.172;6.682;2023-05-13T06:45:36;17.63;;;10.90;;
71610;SDS011;59459;51.172;6.682;2023-05-13T06:48:01;18.07;;;11.30;;
71610;SDS011;59459;51.172;6.682;2023-05-13T06:50:27;18.33;;;10.83;;
71610;SDS011;59459;51.172;6.682;2023-05-13T06:52:53;17.60;;;10.60;;
71610;SDS011;59459;51.172;6.682;2023-05-13T06:55:18;17.40;;;10.68;;
71610;SDS011;59459;51.172;6.682;2023-05-13T06:57:44;17.57;;;11.07;;
71610;SDS011;59459;51.172;6.682;2023-05-13T07:00:10;17.55;;;10.43;;
71610;SDS011;59459;51.172;6.682;2023-05-13T07:02:36;18.43;;;10.63;;
71610;SDS011;59459;51.172;6.682;2023-05-13T07:05:01;17.13;;;10.57;;
71610;SDS011;59459;51.172;6.682;2023-05-13T07:07:27;18.97;;;11.63;;
71610;SDS011;59459;51.172;6.682;2023-05-13T07:09:52;19.10;;;10.23;;
71610;SDS011;59459;51.172;6.682;2023-05-13T07:12:17;15.43;;;10.07;;
71610;SDS011;59459;51.172;6.682;2023-05-13T07:14:42;17.33;;;11.27;;
71610;SDS011;59459;51.172;6.682;2023-05-13T07:17:09;18.13;;;10.53;;
71610;SDS011;59459;51.172;6.682;2023-05-13T07:19:34;17.13;;;9.83;;
71610;SDS011;59459;51.172;6.682;2023-05-13T07:21:59;17.55;;;9.82;;
71610;SDS011;59459;51.172;6.682;2023-05-13T07:24:24;16.43;;;9.90;;
71610;SDS011;59459;51.172;6.682;2023-05-13T07:26:50;17.33;;;10.40;;
71610;SDS011;59459;51.172;6.682;2023-05-13T07:29:15;17.13;;;9.67;;
71610;SDS011;59459;51.172;6.682;2023-05-13T07:31:40;15.70;;;9.70;;
71610;SDS011;59459;51.172;6.682;2023-05-13T07:34:06;15.33;;;9.37;;
71610;SDS011;59459;51.172;6.682;2023-05-13T07:36:31;18.57;;;10.20;;
71610;SDS011;59459;51.172;6.682;2023-05-13T07:38:56;15.10;;;9.13;;
71610;SDS011;59459;51.172;6.682;2023-05-13T07:41:21;16.97;;;11.00;;
71610;SDS011;59459;51.172;6.682;2023-05-13T07:43:46;15.43;;;10.07;;
71610;SDS011;59459;51.172;6.682;2023-05-13T07:46:12;15.77;;;9.23;;
71610;SDS011;59459;51.172;6.682;2023-05-13T07:48:37;15.63;;;9.33;;
71610;SDS011;59459;51.172;6.682;2023-05-13T07:51:03;14.65;;;9.25;;
71610;SDS011;59459;51.172;6.682;2023-05-13T07:53:29;13.38;;;8.52;;
71610;SDS011;59459;51.172;6.682;2023-05-13T07:55:57;14.13;;;8.90;;
71610;SDS011;59459;51.172;6.682;2023-05-13T07:58:22;16.00;;;8.68;;
71610;SDS011;59459;51.172;6.682;2023-05-13T08:00:48;14.63;;;9.27;;
71610;SDS011;59459;51.172;6.682;2023-05-13T08:03:13;16.93;;;9.13;;
71610;SDS011;59459;51.172;6.682;2023-05-13T08:05:40;16.00;;;9.65;;
71610;SDS011;59459;51.172;6.682;2023-05-13T08:08:05;13.27;;;8.40;;
71610;SDS011;59459;51.172;6.682;2023-05-13T08:10:30;13.40;;;8.20;;
71610;SDS011;59459;51.172;6.682;2023-05-13T08:12:56;13.93;;;9.03;;
71610;SDS011;59459;51.172;6.682;2023-05-13T08:15:22;11.97;;;8.27;;
71610;SDS011;59459;51.172;6.682;2023-05-13T08:17:47;12.18;;;7.47;;
71610;SDS011;59459;51.172;6.682;2023-05-13T08:20:13;12.33;;;8.00;;
71610;SDS011;59459;51.172;6.682;2023-05-13T08:22:39;11.30;;;7.93;;
71610;SDS011;59459;51.172;6.682;2023-05-13T08:25:04;13.27;;;7.97;;
71610;SDS011;59459;51.172;6.682;2023-05-13T08:27:30;13.07;;;8.00;;
71610;SDS011;59459;51.172;6.682;2023-05-13T08:29:55;10.97;;;7.70;;
71610;SDS011;59459;51.172;6.682;2023-05-13T08:32:20;11.93;;;7.63;;
71610;SDS011;59459;51.172;6.682;2023-05-13T08:34:46;11.40;;;7.63;;
71610;SDS011;59459;51.172;6.682;2023-05-13T08:37:13;11.35;;;7.10;;
71610;SDS011;59459;51.172;6.682;2023-05-13T08:39:41;11.77;;;7.40;;
71610;SDS011;59459;51.172;6.682;2023-05-13T08:42:06;12.88;;;7.47;;
71610;SDS011;59459;51.172;6.682;2023-05-13T08:44:32;11.40;;;7.38;;
71610;SDS011;59459;51.172;6.682;2023-05-13T08:47:03;11.60;;;7.68;;
71610;SDS011;59459;51.172;6.682;2023-05-13T08:49:33;10.60;;;7.20;;
71610;SDS011;59459;51.172;6.682;2023-05-13T08:51:58;12.50;;;6.60;;
71610;SDS011;59459;51.172;6.682;2023-05-13T08:54:23;11.07;;;6.80;;
71610;SDS011;59459;51.172;6.682;2023-05-13T08:56:49;10.85;;;6.78;;
71610;SDS011;59459;51.172;6.682;2023-05-13T08:59:15;11.63;;;6.30;;
71610;SDS011;59459;51.172;6.682;2023-05-13T09:01:41;10.85;;;6.53;;
71610;SDS011;59459;51.172;6.682;2023-05-13T09:04:07;9.13;;;5.30;;
71610;SDS011;59459;51.172;6.682;2023-05-13T09:06:32;9.23;;;5.32;;
71610;SDS011;59459;51.172;6.682;2023-05-13T09:08:59;8.90;;;4.93;;
71610;SDS011;59459;51.172;6.682;2023-05-13T09:11:24;10.13;;;5.63;;
71610;SDS011;59459;51.172;6.682;2023-05-13T09:14:00;10.67;;;6.10;;
71610;SDS011;59459;51.172;6.682;2023-05-13T09:16:26;8.80;;;5.80;;
71610;SDS011;59459;51.172;6.682;2023-05-13T09:19:09;9.73;;;5.63;;
71610;SDS011;59459;51.172;6.682;2023-05-13T09:21:35;11.52;;;6.03;;
71610;SDS011;59459;51.172;6.682;2023-05-13T09:24:14;8.57;;;5.30;;
71610;SDS011;59459;51.172;6.682;2023-05-13T09:26:43;8.00;;;5.30;;
71610;SDS011;59459;51.172;6.682;2023-05-13T09:29:15;10.45;;;5.32;;
71610;SDS011;59459;51.172;6.682;2023-05-13T09:31:42;9.52;;;5.75;;
71610;SDS011;59459;51.172;6.682;2023-05-13T09:34:07;9.77;;;5.93;;
71610;SDS011;59459;51.172;6.682;2023-05-13T09:36:32;9.93;;;5.77;;
71610;SDS011;59459;51.172;6.682;2023-05-13T09:38:57;9.03;;;6.03;;
71610;SDS011;59459;51.172;6.682;2023-05-13T09:41:25;8.40;;;5.82;;
71610;SDS011;59459;51.172;6.682;2023-05-13T09:43:50;9.05;;;5.80;;
71610;SDS011;59459;51.172;6.682;2023-05-13T09:46:16;8.13;;;5.50;;
71610;SDS011;59459;51.172;6.682;2023-05-13T09:48:42;8.77;;;5.37;;
71610;SDS011;59459;51.172;6.682;2023-05-13T09:51:07;10.45;;;5.50;;
71610;SDS011;59459;51.172;6.682;2023-05-13T09:53:33;9.40;;;5.63;;
71610;SDS011;59459;51.172;6.682;2023-05-13T09:55:58;7.93;;;5.27;;
71610;SDS011;59459;51.172;6.682;2023-05-13T09:58:25;7.68;;;5.20;;
71610;SDS011;59459;51.172;6.682;2023-05-13T10:00:55;10.05;;;5.32;;
71610;SDS011;59459;51.172;6.682;2023-05-13T10:03:20;8.57;;;5.03;;
71610;SDS011;59459;51.172;6.682;2023-05-13T10:05:45;8.20;;;5.30;;
71610;SDS011;59459;51.172;6.682;2023-05-13T10:08:12;9.00;;;5.38;;
71610;SDS011;59459;51.172;6.682;2023-05-13T10:10:39;7.78;;;4.32;;
71610;SDS011;59459;51.172;6.682;2023-05-13T10:13:08;7.82;;;5.15;;
71610;SDS011;59459;51.172;6.682;2023-05-13T10:15:35;8.40;;;5.25;;
71610;SDS011;59459;51.172;6.682;2023-05-13T10:18:00;7.70;;;4.60;;
71610;SDS011;59459;51.172;6.682;2023-05-13T10:20:26;9.57;;;4.60;;
71610;SDS011;59459;51.172;6.682;2023-05-13T10:22:51;7.13;;;4.68;;
71610;SDS011;59459;51.172;6.682;2023-05-13T10:25:17;7.07;;;4.50;;
71610;SDS011;59459;51.172;6.682;2023-05-13T10:27:42;7.60;;;4.47;;
71610;SDS011;59459;51.172;6.682;2023-05-13T10:30:08;7.00;;;4.33;;
71610;SDS011;59459;51.172;6.682;2023-05-13T10:32:34;7.22;;;4.30;;
71610;SDS011;59459;51.172;6.682;2023-05-13T10:37:35;7.43;;;4.63;;
71610;SDS011;59459;51.172;6.682;2023-05-13T10:42:36;6.70;;;4.10;;
71610;SDS011;59459;51.172;6.682;2023-05-13T10:45:03;6.63;;;4.00;;
71610;SDS011;59459;51.172;6.682;2023-05-13T10:47:32;7.40;;;4.47;;
71610;SDS011;59459;51.172;6.682;2023-05-13T10:49:57;6.35;;;4.13;;
71610;SDS011;59459;51.172;6.682;2023-05-13T10:52:22;6.43;;;4.17;;
71610;SDS011;59459;51.172;6.682;2023-05-13T10:55:00;6.27;;;4.50;;
71610;SDS011;59459;51.172;6.682;2023-05-13T10:57:37;6.57;;;4.55;;
71610;SDS011;59459;51.172;6.682;2023-05-13T11:00:12;7.25;;;4.10;;
71610;SDS011;59459;51.172;6.682;2023-05-13T11:02:39;7.10;;;4.20;;
71610;SDS011;59459;51.172;6.682;2023-05-13T11:05:04;6.20;;;4.00;;
71610;SDS011;59459;51.172;6.682;2023-05-13T11:07:30;7.10;;;4.63;;
71610;SDS011;59459;51.172;6.682;2023-05-13T11:09:55;5.53;;;3.67;;
71610;SDS011;59459;51.172;6.682;2023-05-13T11:12:20;7.93;;;4.40;;
71610;SDS011;59459;51.172;6.682;2023-05-13T11:14:45;5.83;;;4.10;;
71610;SDS011;59459;51.172;6.682;2023-05-13T11:17:11;6.77;;;4.30;;
71610;SDS011;59459;51.172;6.682;2023-05-13T11:19:37;6.70;;;3.97;;
71610;SDS011;59459;51.172;6.682;2023-05-13T11:22:09;7.43;;;3.70;;
71610;SDS011;59459;51.172;6.682;2023-05-13T11:24:35;6.15;;;4.05;;
71610;SDS011;59459;51.172;6.682;2023-05-13T11:29:44;6.97;;;4.17;;
71610;SDS011;59459;51.172;6.682;2023-05-13T11:32:11;8.27;;;4.25;;
71610;SDS011;59459;51.172;6.682;2023-05-13T11:34:36;6.63;;;4.00;;
71610;SDS011;59459;51.172;6.682;2023-05-13T11:39:27;7.10;;;4.10;;
71610;SDS011;59459;51.172;6.682;2023-05-13T11:41:53;14.73;;;4.70;;
71610;SDS011;59459;51.172;6.682;2023-05-13T11:44:22;7.40;;;3.75;;
71610;SDS011;59459;51.172;6.682;2023-05-13T11:46:57;7.55;;;4.13;;
71610;SDS011;59459;51.172;6.682;2023-05-13T11:49:32;8.00;;;4.30;;
71610;SDS011;59459;51.172;6.682;2023-05-13T11:52:07;6.65;;;4.00;;
71610;SDS011;59459;51.172;6.682;2023-05-13T11:59:51;7.70;;;3.90;;
71610;SDS011;59459;51.172;6.682;2023-05-13T12:02:29;9.10;;;3.77;;
71610;SDS011;59459;51.172;6.682;2023-05-13T12:04:58;5.45;;;3.30;;
71610;SDS011;59459;51.172;6.682;2023-05-13T12:07:24;6.20;;;3.60;;
71610;SDS011;59459;51.172;6.682;2023-05-13T12:09:50;6.20;;;3.78;;
71610;SDS011;59459;51.172;6.682;2023-05-13T12:12:16;5.93;;;3.97;;
71610;SDS011;59459;51.172;6.682;2023-05-13T12:14:42;5.87;;;3.80;;
71610;SDS011;59459;51.172;6.682;2023-05-13T12:17:08;5.28;;;3.65;;
71610;SDS011;59459;51.172;6.682;2023-05-13T12:19:33;6.40;;;3.53;;
71610;SDS011;59459;51.172;6.682;2023-05-13T12:22:01;6.22;;;4.22;;
71610;SDS011;59459;51.172;6.682;2023-05-13T12:24:26;6.70;;;3.58;;
71610;SDS011;59459;51.172;6.682;2023-05-13T12:27:03;5.82;;;4.00;;
71610;SDS011;59459;51.172;6.682;2023-05-13T12:29:37;5.10;;;3.20;;
71610;SDS011;59459;51.172;6.682;2023-05-13T12:32:03;6.18;;;3.85;;
71610;SDS011;59459;51.172;6.682;2023-05-13T12:34:29;5.53;;;3.83;;
71610;SDS011;59459;51.172;6.682;2023-05-13T12:36:55;6.05;;;3.65;;
71610;SDS011;59459;51.172;6.682;2023-05-13T12:39:20;6.33;;;3.67;;
71610;SDS011;59459;51.172;6.682;2023-05-13T12:41:49;6.55;;;4.13;;
71610;SDS011;59459;51.172;6.682;2023-05-13T12:44:16;5.25;;;3.35;;
71610;SDS011;59459;51.172;6.682;2023-05-13T12:46:50;6.67;;;4.10;;
71610;SDS011;59459;51.172;6.682;2023-05-13T12:49:16;6.77;;;3.90;;
71610;SDS011;59459;51.172;6.682;2023-05-13T12:51:42;6.32;;;3.70;;
71610;SDS011;59459;51.172;6.682;2023-05-13T12:54:07;5.93;;;2.90;;
71610;SDS011;59459;51.172;6.682;2023-05-13T12:56:32;8.40;;;6.33;;
71610;SDS011;59459;51.172;6.682;2023-05-13T12:58:57;6.47;;;3.40;;
71610;SDS011;59459;51.172;6.682;2023-05-13T13:01:23;6.50;;;4.17;;
71610;SDS011;59459;51.172;6.682;2023-05-13T13:03:48;5.37;;;3.63;;
71610;SDS011;59459;51.172;6.682;2023-05-13T13:06:13;6.17;;;3.07;;
71610;SDS011;59459;51.172;6.682;2023-05-13T13:08:39;6.07;;;4.10;;
71610;SDS011;59459;51.172;6.682;2023-05-13T13:11:04;4.80;;;3.10;;
71610;SDS011;59459;51.172;6.682;2023-05-13T13:13:30;5.47;;;3.00;;
71610;SDS011;59459;51.172;6.682;2023-05-13T13:15:55;7.10;;;2.43;;
71610;SDS011;59459;51.172;6.682;2023-05-13T13:18:20;4.73;;;2.70;;
71610;SDS011;59459;51.172;6.682;2023-05-13T13:20:48;4.87;;;2.90;;
71610;SDS011;59459;51.172;6.682;2023-05-13T13:23:13;5.70;;;3.13;;
71610;SDS011;59459;51.172;6.682;2023-05-13T13:25:38;4.03;;;2.53;;
71610;SDS011;59459;51.172;6.682;2023-05-13T13:28:04;4.77;;;2.97;;
71610;SDS011;59459;51.172;6.682;2023-05-13T13:30:29;4.37;;;2.70;;
71610;SDS011;59459;51.172;6.682;2023-05-13T13:32:54;4.50;;;3.10;;
71610;SDS011;59459;51.172;6.682;2023-05-13T13:35:20;5.30;;;3.03;;
71610;SDS011;59459;51.172;6.682;2023-05-13T13:37:45;5.07;;;2.97;;
71610;SDS011;59459;51.172;6.682;2023-05-13T13:40:11;5.77;;;3.23;;
71610;SDS011;59459;51.172;6.682;2023-05-13T13:42:36;5.30;;;3.13;;
71610;SDS011;59459;51.172;6.682;2023-05-13T13:45:01;5.72;;;2.88;;
71610;SDS011;59459;51.172;6.682;2023-05-13T13:47:27;5.50;;;3.10;;
71610;SDS011;59459;51.172;6.682;2023-05-13T13:49:55;5.30;;;3.13;;
71610;SDS011;59459;51.172;6.682;2023-05-13T13:52:21;5.05;;;2.75;;
71610;SDS011;59459;51.172;6.682;2023-05-13T13:54:47;4.93;;;3.10;;
71610;SDS011;59459;51.172;6.682;2023-05-13T13:57:13;4.47;;;2.93;;
71610;SDS011;59459;51.172;6.682;2023-05-13T13:59:38;4.93;;;2.87;;
71610;SDS011;59459;51.172;6.682;2023-05-13T14:02:03;6.37;;;3.10;;
71610;SDS011;59459;51.172;6.682;2023-05-13T14:04:29;5.27;;;2.90;;
71610;SDS011;59459;51.172;6.682;2023-05-13T14:06:54;6.47;;;2.77;;
71610;SDS011;59459;51.172;6.682;2023-05-13T14:09:20;5.07;;;3.00;;
71610;SDS011;59459;51.172;6.682;2023-05-13T14:11:45;4.93;;;2.70;;
71610;SDS011;59459;51.172;6.682;2023-05-13T14:14:11;5.97;;;3.00;;
71610;SDS011;59459;51.172;6.682;2023-05-13T14:16:36;5.20;;;2.90;;
71610;SDS011;59459;51.172;6.682;2023-05-13T14:19:01;5.50;;;3.27;;
71610;SDS011;59459;51.172;6.682;2023-05-13T14:21:26;5.00;;;2.53;;
71610;SDS011;59459;51.172;6.682;2023-05-13T14:23:52;7.93;;;3.30;;
71610;SDS011;59459;51.172;6.682;2023-05-13T14:26:17;6.30;;;2.80;;
71610;SDS011;59459;51.172;6.682;2023-05-13T14:28:42;5.63;;;2.70;;
71610;SDS011;59459;51.172;6.682;2023-05-13T14:31:07;5.27;;;2.83;;
71610;SDS011;59459;51.172;6.682;2023-05-13T14:33:33;5.10;;;2.90;;
71610;SDS011;59459;51.172;6.682;2023-05-13T14:35:58;5.30;;;2.80;;
71610;SDS011;59459;51.172;6.682;2023-05-13T14:38:23;5.47;;;2.50;;
71610;SDS011;59459;51.172;6.682;2023-05-13T14:40:49;5.90;;;3.37;;
71610;SDS011;59459;51.172;6.682;2023-05-13T14:43:14;5.13;;;3.07;;
71610;SDS011;59459;51.172;6.682;2023-05-13T14:45:39;4.40;;;2.80;;
71610;SDS011;59459;51.172;6.682;2023-05-13T14:48:04;5.03;;;3.13;;
71610;SDS011;59459;51.172;6.682;2023-05-13T14:50:30;5.57;;;3.37;;
71610;SDS011;59459;51.172;6.682;2023-05-13T14:52:55;6.90;;;3.45;;